createdAt,value
2022-10-25T00:00:21.114Z,25.73
2022-10-25T00:02:48.068Z,28.83
2022-10-25T00:05:15.941Z,28.00
2022-10-25T00:07:42.860Z,25.60
2022-10-25T00:10:09.893Z,34.57
2022-10-25T00:12:41.389Z,27.23
2022-10-25T00:15:08.430Z,29.50
2022-10-25T00:17:35.329Z,23.23
2022-10-25T00:20:02.074Z,20.93
2022-10-25T00:22:29.238Z,23.10
2022-10-25T00:24:56.032Z,23.30
2022-10-25T00:27:22.922Z,28.93
2022-10-25T00:29:49.728Z,21.87
2022-10-25T00:32:16.586Z,21.10
2022-10-25T00:34:43.372Z,15.23
2022-10-25T00:37:10.142Z,20.30
2022-10-25T00:39:36.917Z,19.77
2022-10-25T00:42:03.933Z,24.47
2022-10-25T00:44:36.700Z,23.83
2022-10-25T00:47:04.805Z,17.60
2022-10-25T00:49:32.991Z,18.17
2022-10-25T00:52:01.702Z,18.43
2022-10-25T00:54:36.889Z,19.43
2022-10-25T00:57:12.004Z,18.73
2022-10-25T00:59:39.071Z,19.83
2022-10-25T01:02:06.166Z,21.63
2022-10-25T01:04:33.571Z,18.53
2022-10-25T01:07:01.162Z,16.07
2022-10-25T01:09:30.347Z,17.23
2022-10-25T01:11:57.459Z,17.60
2022-10-25T01:14:24.254Z,23.80
2022-10-25T01:16:58.789Z,24.27
2022-10-25T01:19:31.531Z,29.10
2022-10-25T01:22:06.045Z,26.20
2022-10-25T01:24:51.322Z,22.13
2022-10-25T01:27:36.687Z,25.77
2022-10-25T01:30:05.960Z,26.83
2022-10-25T01:32:35.845Z,25.40
2022-10-25T01:35:08.517Z,24.80
2022-10-25T01:37:41.146Z,21.10
2022-10-25T01:40:10.993Z,20.57
2022-10-25T01:42:56.230Z,25.07
2022-10-25T01:45:31.867Z,14.57
2022-10-25T01:48:13.711Z,26.30
2022-10-25T01:50:41.576Z,19.43
2022-10-25T01:53:08.848Z,14.90
2022-10-25T01:55:38.987Z,10.07
2022-10-25T01:58:24.665Z,15.63
2022-10-25T02:01:01.329Z,12.83
2022-10-25T02:03:30.659Z,17.43
2022-10-25T02:05:57.412Z,18.93
2022-10-25T02:08:24.327Z,15.60
2022-10-25T02:10:53.871Z,23.53
2022-10-25T02:13:26.802Z,18.77
2022-10-25T02:16:01.113Z,22.93
2022-10-25T02:20:58.897Z,18.60
2022-10-25T02:23:26.602Z,22.20
2022-10-25T02:25:54.389Z,18.27
2022-10-25T02:28:24.110Z,21.60
2022-10-25T02:30:52.073Z,22.30
2022-10-25T02:33:19.314Z,26.27
2022-10-25T02:36:04.471Z,29.07
2022-10-25T02:38:31.381Z,21.53
2022-10-25T02:40:58.990Z,22.17
2022-10-25T02:43:25.834Z,22.33
2022-10-25T02:45:52.599Z,25.47
2022-10-25T02:48:20.219Z,24.03
2022-10-25T02:50:46.938Z,18.07
2022-10-25T02:53:13.760Z,15.10
2022-10-25T02:55:40.556Z,13.53
2022-10-25T02:58:07.379Z,14.67
2022-10-25T03:00:34.188Z,15.13
2022-10-25T03:03:01.088Z,17.97
2022-10-25T03:05:27.867Z,21.33
2022-10-25T03:07:54.637Z,17.93
2022-10-25T03:10:21.535Z,20.33
2022-10-25T03:12:48.591Z,23.00
2022-10-25T03:15:15.826Z,21.10
2022-10-25T03:17:42.555Z,20.43
2022-10-25T03:20:09.622Z,14.53
2022-10-25T03:22:36.353Z,18.57
2022-10-25T03:25:03.340Z,24.80
2022-10-25T03:27:30.110Z,24.97
2022-10-25T03:29:56.936Z,30.00
2022-10-25T03:32:23.691Z,27.83
2022-10-25T03:34:50.512Z,19.87
2022-10-25T03:37:17.897Z,24.77
2022-10-25T03:39:44.791Z,22.63
2022-10-25T03:42:11.562Z,16.07
2022-10-25T03:44:38.428Z,16.50
2022-10-25T03:47:05.270Z,13.70
2022-10-25T03:49:32.049Z,15.40
2022-10-25T03:52:01.339Z,10.07
2022-10-25T03:54:31.051Z,12.97
2022-10-25T03:56:57.832Z,11.57
2022-10-25T03:59:24.691Z,11.33
2022-10-25T04:01:51.504Z,11.60
2022-10-25T04:04:18.373Z,14.87
2022-10-25T04:06:45.124Z,13.07
2022-10-25T04:09:12.268Z,12.53
2022-10-25T04:11:39.096Z,15.40
2022-10-25T04:14:05.999Z,14.20
2022-10-25T04:16:32.716Z,12.60
2022-10-25T04:18:59.780Z,13.37
2022-10-25T04:21:26.819Z,15.23
2022-10-25T04:23:54.007Z,17.23
2022-10-25T04:26:20.776Z,15.33
2022-10-25T04:28:51.945Z,20.93
2022-10-25T04:31:18.833Z,14.00
2022-10-25T04:33:49.006Z,12.23
2022-10-25T04:36:16.061Z,13.83
2022-10-25T04:38:42.889Z,16.90
2022-10-25T04:41:10.468Z,14.37
2022-10-25T04:43:37.514Z,10.67
2022-10-25T04:46:04.340Z,16.97
2022-10-25T04:48:31.067Z,19.33
2022-10-25T04:51:01.002Z,17.97
2022-10-25T04:53:27.928Z,14.30
2022-10-25T04:55:58.715Z,13.83
2022-10-25T04:58:28.918Z,16.30
2022-10-25T05:01:05.904Z,9.97
2022-10-25T05:03:33.256Z,19.67
2022-10-25T05:06:16.990Z,21.80
2022-10-25T05:08:44.793Z,20.80
2022-10-25T05:11:12.346Z,23.80
2022-10-25T05:13:40.078Z,12.80
2022-10-25T05:16:07.510Z,10.80
2022-10-25T05:18:34.849Z,11.63
2022-10-25T05:21:04.413Z,12.90
2022-10-25T05:23:32.188Z,11.03
2022-10-25T05:26:05.013Z,13.13
2022-10-25T05:28:32.471Z,13.57
2022-10-25T05:31:02.518Z,13.90
2022-10-25T05:33:29.604Z,14.07
2022-10-25T05:35:56.410Z,15.63
2022-10-25T05:38:23.181Z,14.10
2022-10-25T05:40:53.922Z,13.17
2022-10-25T05:43:20.852Z,11.93
2022-10-25T05:45:47.716Z,13.93
2022-10-25T05:48:14.500Z,17.70
2022-10-25T05:53:08.986Z,13.37
2022-10-25T05:55:36.771Z,15.23
2022-10-25T05:58:04.292Z,16.33
2022-10-25T06:00:31.179Z,13.50
2022-10-25T06:03:00.279Z,14.47
2022-10-25T06:05:27.066Z,18.47
2022-10-25T06:07:53.927Z,18.67
2022-10-25T06:10:20.728Z,15.23
2022-10-25T06:12:47.670Z,15.50
2022-10-25T06:15:14.772Z,14.97
2022-10-25T06:17:41.602Z,13.20
2022-10-25T06:20:08.698Z,16.73
2022-10-25T06:22:35.520Z,15.90
2022-10-25T06:25:02.321Z,15.47
2022-10-25T06:27:29.204Z,14.43
2022-10-25T06:29:55.976Z,12.17
2022-10-25T06:32:22.838Z,15.97
2022-10-25T06:34:49.637Z,17.73
2022-10-25T06:37:16.383Z,14.17
2022-10-25T06:39:43.144Z,14.33
2022-10-25T06:42:09.937Z,17.23
2022-10-25T06:44:36.781Z,18.40
2022-10-25T06:47:18.799Z,16.40
2022-10-25T06:49:45.930Z,18.33
2022-10-25T06:52:12.701Z,15.83
2022-10-25T06:54:39.542Z,14.47
2022-10-25T06:57:06.431Z,18.33
2022-10-25T06:59:33.172Z,15.83
2022-10-25T07:02:00.446Z,14.13
2022-10-25T07:04:27.345Z,12.80
2022-10-25T07:06:55.322Z,16.20
2022-10-25T07:09:22.298Z,15.07
2022-10-25T07:11:49.109Z,16.20
2022-10-25T07:14:16.033Z,15.67
2022-10-25T07:16:42.816Z,15.63
2022-10-25T07:19:10.751Z,15.07
2022-10-25T07:21:37.559Z,16.63
2022-10-25T07:24:04.762Z,15.57
2022-10-25T07:26:32.542Z,19.53
2022-10-25T07:29:00.099Z,15.63
2022-10-25T07:31:28.335Z,14.03
2022-10-25T07:33:57.205Z,17.07
2022-10-25T07:36:24.552Z,17.57
2022-10-25T07:38:51.320Z,20.53
2022-10-25T07:41:18.107Z,17.63
2022-10-25T07:43:45.027Z,17.33
2022-10-25T07:46:11.793Z,16.53
2022-10-25T07:48:39.167Z,15.20
2022-10-25T07:51:07.248Z,19.70
2022-10-25T07:53:34.187Z,16.10
2022-10-25T07:56:00.992Z,21.97
2022-10-25T07:58:27.874Z,15.07
2022-10-25T08:01:00.158Z,13.47
2022-10-25T08:03:26.964Z,13.47
2022-10-25T08:05:53.781Z,13.40
2022-10-25T08:08:23.357Z,13.30
2022-10-25T08:10:50.430Z,15.27
2022-10-25T08:13:17.327Z,15.17
2022-10-25T08:15:53.960Z,16.80
2022-10-25T08:18:21.020Z,14.20
2022-10-25T08:21:04.005Z,11.37
2022-10-25T08:23:32.152Z,13.30
2022-10-25T08:25:59.395Z,11.57
2022-10-25T08:28:26.346Z,13.13
2022-10-25T08:30:56.065Z,16.77
2022-10-25T08:33:23.450Z,14.57
2022-10-25T08:35:50.314Z,16.83
2022-10-25T08:38:17.264Z,13.03
2022-10-25T08:40:51.702Z,13.57
2022-10-25T08:43:18.493Z,16.17
2022-10-25T08:45:52.238Z,15.17
2022-10-25T08:48:22.423Z,13.87
2022-10-25T08:50:51.927Z,14.87
2022-10-25T08:53:22.289Z,16.07
2022-10-25T08:56:05.114Z,10.37
2022-10-25T08:58:38.470Z,12.30
2022-10-25T09:01:11.346Z,15.57
2022-10-25T09:06:15.238Z,15.60
2022-10-25T09:08:45.199Z,11.50
2022-10-25T09:11:12.197Z,11.80
2022-10-25T09:13:41.782Z,11.03
2022-10-25T09:16:09.501Z,26.33
2022-10-25T09:18:40.968Z,9.60
2022-10-25T09:21:14.902Z,10.63
2022-10-25T09:23:48.481Z,12.40
2022-10-25T09:26:35.504Z,11.90
2022-10-25T09:29:25.496Z,8.83
2022-10-25T09:31:54.507Z,14.67
2022-10-25T09:34:22.815Z,10.87
2022-10-25T09:36:52.502Z,6.73
2022-10-25T09:39:19.908Z,10.47
2022-10-25T09:41:48.439Z,9.93
2022-10-25T09:44:34.042Z,11.37
2022-10-25T09:47:04.574Z,10.57
2022-10-25T09:49:37.777Z,8.33
2022-10-25T09:52:13.403Z,7.47
2022-10-25T09:54:42.543Z,7.13
2022-10-25T09:57:09.350Z,6.40
2022-10-25T09:59:36.178Z,8.63
2022-10-25T10:02:03.185Z,7.13
2022-10-25T10:04:30.012Z,7.70
2022-10-25T10:07:03.694Z,9.40
2022-10-25T10:09:31.452Z,8.67
2022-10-25T10:12:00.277Z,9.87
2022-10-25T10:14:29.937Z,10.00
2022-10-25T10:16:57.521Z,7.67
2022-10-25T10:19:25.630Z,9.53
2022-10-25T10:22:09.496Z,8.77
2022-10-25T10:24:37.246Z,9.50
2022-10-25T10:27:08.849Z,8.83
2022-10-25T10:29:37.236Z,9.30
2022-10-25T10:32:22.135Z,9.27
2022-10-25T10:34:53.437Z,7.03
2022-10-25T10:37:21.566Z,9.60
2022-10-25T10:39:48.327Z,10.43
2022-10-25T10:42:19.225Z,12.50
2022-10-25T10:45:09.809Z,11.77
2022-10-25T10:47:36.575Z,7.47
2022-10-25T10:50:11.116Z,9.43
2022-10-25T10:52:43.795Z,6.53
2022-10-25T10:55:18.002Z,8.67
2022-10-25T10:57:45.203Z,5.43
2022-10-25T11:00:22.312Z,7.30
2022-10-25T11:02:50.797Z,6.20
2022-10-25T11:05:19.399Z,7.63
2022-10-25T11:07:52.519Z,14.43
2022-10-25T11:10:20.524Z,6.90
2022-10-25T11:13:04.168Z,10.03
2022-10-25T11:15:34.467Z,6.30
2022-10-25T11:18:05.176Z,4.70
2022-10-25T11:20:43.743Z,6.50
2022-10-25T11:23:13.659Z,9.50
2022-10-25T11:25:55.756Z,6.00
2022-10-25T11:28:44.432Z,6.77
2022-10-25T11:31:11.321Z,5.07
2022-10-25T11:33:56.550Z,8.07
2022-10-25T11:36:26.442Z,8.53
2022-10-25T11:38:53.214Z,7.03
2022-10-25T11:41:38.106Z,9.67
2022-10-25T11:44:07.917Z,6.50
2022-10-25T11:46:41.930Z,6.47
2022-10-25T11:49:27.429Z,4.90
2022-10-25T11:54:49.537Z,5.60
2022-10-25T11:57:28.273Z,4.97
2022-10-25T12:00:01.370Z,9.10
2022-10-25T12:02:47.007Z,12.30
2022-10-25T12:05:14.135Z,7.40
2022-10-25T12:07:44.595Z,6.00
2022-10-25T12:10:17.474Z,11.03
2022-10-25T12:12:50.831Z,9.77
2022-10-25T12:15:27.512Z,6.23
2022-10-25T12:17:54.335Z,11.10
2022-10-25T12:20:26.256Z,8.00
2022-10-25T12:22:55.873Z,10.27
2022-10-25T12:25:25.334Z,6.30
2022-10-25T12:28:06.772Z,7.93
2022-10-25T12:30:34.352Z,7.80
2022-10-25T12:33:24.079Z,5.63
2022-10-25T12:35:53.381Z,4.53
2022-10-25T12:38:26.000Z,7.60
2022-10-25T12:40:54.681Z,10.37
2022-10-25T12:43:33.192Z,7.37
2022-10-25T12:46:16.548Z,8.83
2022-10-25T12:49:03.373Z,4.90
2022-10-25T12:51:30.212Z,7.27
2022-10-25T12:54:09.615Z,8.00
2022-10-25T12:56:36.514Z,5.73
2022-10-25T12:59:03.220Z,5.33
2022-10-25T13:01:30.217Z,6.37
2022-10-25T13:04:06.137Z,6.17
2022-10-25T13:06:32.875Z,6.43
2022-10-25T13:09:04.873Z,8.83
2022-10-25T13:11:52.848Z,5.30
2022-10-25T13:14:21.402Z,5.07
2022-10-25T13:16:48.246Z,5.33
2022-10-25T13:19:42.397Z,10.00
2022-10-25T13:22:12.228Z,5.40
2022-10-25T13:24:41.776Z,4.97
2022-10-25T13:27:28.452Z,7.87
2022-10-25T13:30:07.536Z,5.87
2022-10-25T13:32:35.478Z,4.20
2022-10-25T13:35:03.989Z,8.37
2022-10-25T13:37:31.148Z,10.53
2022-10-25T13:39:59.046Z,13.67
2022-10-25T13:42:33.442Z,4.67
2022-10-25T13:45:03.112Z,7.40
2022-10-25T13:47:36.249Z,5.97
2022-10-25T13:50:18.807Z,5.90
2022-10-25T13:52:56.815Z,11.63
2022-10-25T13:55:27.408Z,4.57
2022-10-25T13:57:55.363Z,6.50
2022-10-25T14:00:22.107Z,6.67
2022-10-25T14:03:07.805Z,9.23
2022-10-25T14:05:53.186Z,10.50
2022-10-25T14:08:22.346Z,6.73
2022-10-25T14:10:49.480Z,10.90
2022-10-25T14:13:27.748Z,14.30
2022-10-25T14:16:00.546Z,10.33
2022-10-25T14:18:28.797Z,6.07
2022-10-25T14:20:58.308Z,13.60
2022-10-25T14:23:27.534Z,9.30
2022-10-25T14:25:56.262Z,5.70
2022-10-25T14:28:27.660Z,7.53
2022-10-25T14:31:01.742Z,8.80
2022-10-25T14:33:33.836Z,11.90
2022-10-25T14:36:05.292Z,8.43
2022-10-25T14:38:33.461Z,6.47
2022-10-25T14:41:02.801Z,6.37
2022-10-25T14:43:36.851Z,7.17
2022-10-25T14:46:06.751Z,9.77
2022-10-25T14:48:33.904Z,11.90
2022-10-25T14:51:04.162Z,11.03
2022-10-25T14:53:31.146Z,16.73
2022-10-25T14:56:02.134Z,12.23
2022-10-25T14:58:34.036Z,10.57
2022-10-25T15:01:02.334Z,11.90
2022-10-25T15:03:30.050Z,9.60
2022-10-25T15:05:59.885Z,20.67
2022-10-25T15:08:28.460Z,8.13
2022-10-25T15:10:56.946Z,9.80
2022-10-25T15:13:27.637Z,8.27
2022-10-25T15:15:54.738Z,7.43
2022-10-25T15:18:27.524Z,10.67
2022-10-25T15:21:14.363Z,8.77
2022-10-25T15:23:42.571Z,9.63
2022-10-25T15:26:21.655Z,12.63
2022-10-25T15:28:49.683Z,9.90
2022-10-25T15:31:23.668Z,11.03
2022-10-25T15:33:57.441Z,10.67
2022-10-25T15:36:25.505Z,10.00
2022-10-25T15:39:08.262Z,30.57
2022-10-25T15:41:38.555Z,16.13
2022-10-25T15:44:05.322Z,21.17
2022-10-25T15:46:33.551Z,15.03
2022-10-25T15:49:01.468Z,11.57
2022-10-25T15:51:30.992Z,13.27
2022-10-25T15:53:58.184Z,12.80
2022-10-25T15:56:25.221Z,16.70
2022-10-25T15:58:52.030Z,17.97
2022-10-25T16:01:19.102Z,13.83
2022-10-25T16:03:46.076Z,14.73
2022-10-25T16:06:14.296Z,11.97
2022-10-25T16:08:41.811Z,14.00
2022-10-25T16:11:12.846Z,22.40
2022-10-25T16:13:39.754Z,33.47
2022-10-25T16:16:21.867Z,38.10
2022-10-25T16:18:54.675Z,40.57
2022-10-25T16:21:22.012Z,19.20
2022-10-25T16:23:49.360Z,36.67
2022-10-25T16:26:23.625Z,44.23
2022-10-25T16:28:50.604Z,50.73
2022-10-25T16:31:17.608Z,54.73
2022-10-25T16:33:44.441Z,20.20
2022-10-25T16:36:11.564Z,14.63
2022-10-25T16:38:38.337Z,16.80
2022-10-25T16:41:05.178Z,18.73
2022-10-25T16:43:32.022Z,15.13
2022-10-25T16:45:58.883Z,31.93
2022-10-25T16:48:25.876Z,46.47
2022-10-25T16:50:52.739Z,51.13
2022-10-25T16:53:19.817Z,27.37
2022-10-25T16:55:46.737Z,20.00
2022-10-25T16:58:13.512Z,77.33
2022-10-25T17:00:40.383Z,32.47
2022-10-25T17:03:07.285Z,25.83
2022-10-25T17:05:34.262Z,19.70
2022-10-25T17:08:01.269Z,26.73
2022-10-25T17:10:29.190Z,32.40
2022-10-25T17:13:03.814Z,23.20
2022-10-25T17:15:31.370Z,24.00
2022-10-25T17:17:58.512Z,33.57
2022-10-25T17:20:25.377Z,22.63
2022-10-25T17:22:52.337Z,42.77
2022-10-25T17:25:19.751Z,130.20
2022-10-25T17:27:50.773Z,179.03
2022-10-25T17:30:18.848Z,193.97
2022-10-25T17:32:46.551Z,98.73
2022-10-25T17:35:14.083Z,169.10
2022-10-25T17:37:43.884Z,84.33
2022-10-25T17:40:11.559Z,55.53
2022-10-25T17:42:38.441Z,81.53
2022-10-25T17:45:06.220Z,25.47
2022-10-25T17:47:33.122Z,26.50
2022-10-25T17:50:01.841Z,220.13
2022-10-25T17:52:28.795Z,177.53
2022-10-25T17:54:55.561Z,200.77
2022-10-25T17:57:22.442Z,255.63
2022-10-25T17:59:49.275Z,212.30
2022-10-25T18:02:16.256Z,146.10
2022-10-25T18:05:01.048Z,151.43
2022-10-25T18:07:31.212Z,249.97
2022-10-25T18:10:01.135Z,411.57
2022-10-25T18:12:27.958Z,344.70
2022-10-25T18:14:55.584Z,473.27
2022-10-25T18:17:22.892Z,409.23
2022-10-25T18:19:49.704Z,660.87
2022-10-25T18:22:18.263Z,356.20
2022-10-25T18:24:45.170Z,642.90
2022-10-25T18:27:15.037Z,726.83
2022-10-25T18:29:43.549Z,230.50
2022-10-25T18:32:10.373Z,292.20
2022-10-25T18:34:37.236Z,184.60
2022-10-25T18:37:03.958Z,87.20
2022-10-25T18:39:30.877Z,121.40
2022-10-25T18:41:58.776Z,93.87
2022-10-25T18:44:25.891Z,135.47
2022-10-25T18:46:54.190Z,186.57
2022-10-25T18:49:20.977Z,301.13
2022-10-25T18:51:47.736Z,460.30
2022-10-25T18:54:14.618Z,291.27
2022-10-25T18:56:41.404Z,168.10
2022-10-25T18:59:09.485Z,295.90
2022-10-25T19:01:36.529Z,215.87
2022-10-25T19:04:04.189Z,265.53
2022-10-25T19:06:31.740Z,32.23
2022-10-25T19:08:58.815Z,25.53
2022-10-25T19:11:25.612Z,790.77
2022-10-25T19:13:53.589Z,492.07
2022-10-25T19:16:20.718Z,372.37
2022-10-25T19:18:47.638Z,46.70
2022-10-25T19:21:17.003Z,44.63
2022-10-25T19:23:46.363Z,50.90
2022-10-25T19:26:15.561Z,39.27
2022-10-25T19:28:42.739Z,48.30
2022-10-25T19:31:13.780Z,36.37
2022-10-25T19:33:44.516Z,37.90
2022-10-25T19:36:11.721Z,35.40
2022-10-25T19:38:38.750Z,41.67
2022-10-25T19:41:06.855Z,53.33
2022-10-25T19:43:33.859Z,39.73
2022-10-25T19:46:01.914Z,47.87
2022-10-25T19:48:31.556Z,43.70
2022-10-25T19:51:04.268Z,55.30
2022-10-25T19:53:31.287Z,41.80
2022-10-25T19:56:18.377Z,31.67
2022-10-25T19:58:45.243Z,28.93
2022-10-25T20:01:16.483Z,26.93
2022-10-25T20:03:44.909Z,23.67
2022-10-25T20:06:18.736Z,33.47
2022-10-25T20:08:49.173Z,62.93
2022-10-25T20:11:16.951Z,34.33
2022-10-25T20:13:44.135Z,38.63
2022-10-25T20:16:11.039Z,40.07
2022-10-25T20:18:39.562Z,34.00
2022-10-25T20:21:08.466Z,30.30
2022-10-25T20:23:36.663Z,21.70
2022-10-25T20:26:17.838Z,18.57
2022-10-25T20:28:45.167Z,22.43
2022-10-25T20:31:12.717Z,19.00
2022-10-25T20:33:40.276Z,15.13
2022-10-25T20:36:08.182Z,20.13
2022-10-25T20:38:36.028Z,15.97
2022-10-25T20:41:04.459Z,21.50
2022-10-25T20:43:31.511Z,22.03
2022-10-25T20:45:58.964Z,18.73
2022-10-25T20:48:26.515Z,17.23
2022-10-25T20:50:54.056Z,12.53
2022-10-25T20:53:22.091Z,20.40
2022-10-25T20:55:49.951Z,19.40
2022-10-25T20:58:18.199Z,16.33
2022-10-25T21:00:46.100Z,15.27
2022-10-25T21:03:13.622Z,19.17
2022-10-25T21:05:43.608Z,19.87
2022-10-25T21:08:11.131Z,18.37
2022-10-25T21:10:38.432Z,13.33
2022-10-25T21:13:05.551Z,18.20
2022-10-25T21:15:32.764Z,13.73
2022-10-25T21:18:00.031Z,17.07
2022-10-25T21:20:27.122Z,16.77
2022-10-25T21:22:53.892Z,15.87
2022-10-25T21:25:20.655Z,17.27
2022-10-25T21:27:47.844Z,12.77
2022-10-25T21:30:14.828Z,14.10
2022-10-25T21:32:41.663Z,16.40
2022-10-25T21:35:08.551Z,21.10
2022-10-25T21:37:35.961Z,17.73
2022-10-25T21:40:02.712Z,17.67
2022-10-25T21:42:32.801Z,15.53
2022-10-25T21:44:59.791Z,18.67
2022-10-25T21:47:26.746Z,17.00
2022-10-25T21:49:53.612Z,18.37
2022-10-25T21:52:20.397Z,17.87
2022-10-25T21:54:47.212Z,19.60
2022-10-25T21:57:14.004Z,17.20
2022-10-25T21:59:40.923Z,18.73
2022-10-25T22:02:08.133Z,17.43
2022-10-25T22:04:34.998Z,18.63
2022-10-25T22:07:01.894Z,30.33
2022-10-25T22:09:28.632Z,15.43
2022-10-25T22:11:55.547Z,32.10
2022-10-25T22:14:22.363Z,54.97
2022-10-25T22:16:49.151Z,30.77
2022-10-25T22:19:17.075Z,33.10
2022-10-25T22:21:44.654Z,22.93
2022-10-25T22:24:12.387Z,20.67
2022-10-25T22:26:40.498Z,68.60
2022-10-25T22:29:09.701Z,20.03
2022-10-25T22:31:36.835Z,36.13
2022-10-25T22:34:04.743Z,36.63
2022-10-25T22:36:32.755Z,19.97
2022-10-25T22:39:00.389Z,21.17
2022-10-25T22:41:28.485Z,17.47
2022-10-25T22:43:55.593Z,15.97
2022-10-25T22:46:26.378Z,17.43
2022-10-25T22:48:54.229Z,15.63
2022-10-25T22:51:22.141Z,15.43
2022-10-25T22:53:48.966Z,14.30
2022-10-25T22:56:17.535Z,14.93
2022-10-25T22:58:48.538Z,11.83
2022-10-25T23:01:16.418Z,12.30
2022-10-25T23:03:44.225Z,17.07
2022-10-25T23:06:12.745Z,11.93
2022-10-25T23:08:40.075Z,9.83
2022-10-25T23:11:12.761Z,14.23
2022-10-25T23:13:39.822Z,15.07
2022-10-25T23:16:07.243Z,15.77
2022-10-25T23:18:34.268Z,19.57
2022-10-25T23:21:02.403Z,11.43
2022-10-25T23:23:32.679Z,10.93
2022-10-25T23:26:00.386Z,15.00
2022-10-25T23:28:30.727Z,14.80
2022-10-25T23:31:03.221Z,13.37
2022-10-25T23:33:30.252Z,14.23
2022-10-25T23:36:01.096Z,13.70
2022-10-25T23:38:28.780Z,18.07
2022-10-25T23:40:55.848Z,16.10
2022-10-25T23:43:22.665Z,12.40
2022-10-25T23:45:49.618Z,11.23
2022-10-25T23:48:16.624Z,12.20
2022-10-25T23:50:44.000Z,13.87
2022-10-25T23:53:11.304Z,11.97
2022-10-25T23:55:38.903Z,12.87
2022-10-25T23:58:05.978Z,15.53
